Time;durP1;ratioP1;P1;durP2;ratioP2;P2;SDS_P1;SDS_P2;PMS_P1;PMS_P2;Temp;Humidity;BMP_temperature;BMP_pressure;BME280_temperature;BME280_humidity;BME280_pressure;Samples;Min_cycle;Max_cycle;Signal;HPM_P1;HPM_P2
2021/11/23 00:00:08;;;;;;;15.18;8.25;;;;;;;-0.99;90.32;102840.38;5025458;28;20045;-65
2021/11/23 00:02:39;;;;;;;19.20;9.70;;;;;;;-0.98;90.36;102836.13;5030780;28;20029;-65
2021/11/23 00:05:06;;;;;;;18.88;9.70;;;;;;;-0.99;90.14;102840.38;5031879;28;20037;-65
2021/11/23 00:07:32;;;;;;;18.15;9.52;;;;;;;-1.00;89.90;102848.06;5041440;28;20048;-65
2021/11/23 00:09:58;;;;;;;18.88;9.85;;;;;;;-1.01;90.30;102838.75;5043170;28;20028;-64
2021/11/23 00:12:24;;;;;;;16.00;9.43;;;;;;;-1.02;90.10;102837.06;5031951;28;20462;-65
2021/11/23 00:14:51;;;;;;;19.92;9.90;;;;;;;-1.06;90.35;102836.28;5035152;28;20047;-65
2021/11/23 00:17:16;;;;;;;18.35;10.55;;;;;;;-1.07;90.36;102839.72;5033574;28;20032;-65
2021/11/23 00:19:42;;;;;;;20.15;10.60;;;;;;;-1.09;90.67;102841.47;5019772;28;20029;-65
2021/11/23 00:22:08;;;;;;;19.95;10.73;;;;;;;-1.10;90.67;102833.84;5031902;28;20496;-65
2021/11/23 00:24:33;;;;;;;21.77;10.75;;;;;;;-1.11;90.42;102838.09;5034435;28;20491;-65
2021/11/23 00:26:59;;;;;;;23.02;10.85;;;;;;;-1.12;90.39;102833.88;5040412;28;20056;-65
2021/11/23 00:29:24;;;;;;;19.88;11.15;;;;;;;-1.13;90.72;102834.75;5017560;28;20483;-65
2021/11/23 00:31:50;;;;;;;20.60;11.13;;;;;;;-1.12;90.37;102838.13;5039733;28;20086;-65
2021/11/23 00:34:18;;;;;;;22.17;10.40;;;;;;;-1.14;90.33;102835.59;5038502;28;20040;-65
2021/11/23 00:36:44;;;;;;;17.70;9.60;;;;;;;-1.14;90.40;102834.78;5027200;28;20036;-65
2021/11/23 00:39:09;;;;;;;21.45;10.18;;;;;;;-1.14;90.59;102833.06;5035316;28;20037;-65
2021/11/23 00:41:35;;;;;;;15.95;9.82;;;;;;;-1.20;90.35;102828.94;5030079;28;20040;-65
2021/11/23 00:44:00;;;;;;;19.48;10.35;;;;;;;-1.23;90.38;102831.53;5036423;28;20440;-66
2021/11/23 00:46:26;;;;;;;20.10;10.32;;;;;;;-1.24;90.85;102832.41;5034059;28;20428;-65
2021/11/23 00:48:52;;;;;;;16.00;9.63;;;;;;;-1.24;90.68;102834.97;5022130;28;20036;-65
2021/11/23 00:51:18;;;;;;;22.20;9.65;;;;;;;-1.25;90.58;102833.25;5033938;28;20072;-65
2021/11/23 00:53:44;;;;;;;17.00;9.10;;;;;;;-1.28;90.32;102835.88;5028746;28;20044;-65
2021/11/23 00:56:09;;;;;;;15.77;9.05;;;;;;;-1.32;90.29;102818.13;5036071;28;20056;-65
2021/11/23 00:58:36;;;;;;;19.35;9.20;;;;;;;-1.34;90.61;102814.78;5032984;28;20077;-66
2021/11/23 01:01:03;;;;;;;18.40;9.07;;;;;;;-1.37;91.17;102818.25;5029421;28;20039;-65
2021/11/23 01:03:32;;;;;;;16.48;8.55;;;;;;;-1.38;91.18;102814.00;5038687;28;20024;-65
2021/11/23 01:06:01;;;;;;;16.65;8.73;;;;;;;-1.40;91.14;102823.38;5030375;28;20102;-65
2021/11/23 01:08:30;;;;;;;18.77;9.77;;;;;;;-1.39;91.22;102809.81;5031036;28;20033;-65
2021/11/23 01:10:57;;;;;;;21.02;10.27;;;;;;;-1.39;91.43;102825.06;5029846;28;20041;-65
2021/11/23 01:13:23;;;;;;;17.08;9.23;;;;;;;-1.40;91.33;102815.75;5027884;28;20056;-65
2021/11/23 01:15:49;;;;;;;15.50;9.25;;;;;;;-1.42;91.46;102818.31;5036754;28;20063;-65
2021/11/23 01:18:14;;;;;;;19.48;9.23;;;;;;;-1.44;91.15;102809.88;5031410;28;20034;-65
2021/11/23 01:20:40;;;;;;;17.48;9.60;;;;;;;-1.46;91.38;102800.59;5032627;28;20116;-65
2021/11/23 01:23:07;;;;;;;17.75;9.02;;;;;;;-1.46;91.42;102806.53;5030425;28;20507;-65
2021/11/23 01:25:33;;;;;;;19.42;9.98;;;;;;;-1.48;91.44;102809.97;5031614;28;20547;-65
2021/11/23 01:27:59;;;;;;;17.88;9.25;;;;;;;-1.51;91.62;102813.38;5035052;28;20052;-65
2021/11/23 01:30:24;;;;;;;14.30;9.25;;;;;;;-1.52;91.64;102811.72;5029354;28;20040;-64
2021/11/23 01:32:50;;;;;;;20.90;9.48;;;;;;;-1.55;91.32;102813.50;5029234;28;20483;-65
2021/11/23 01:35:16;;;;;;;15.82;8.93;;;;;;;-1.59;91.71;102815.25;5028503;28;20064;-65
2021/11/23 01:37:43;;;;;;;17.02;9.18;;;;;;;-1.61;91.75;102812.72;5035201;28;20033;-65
2021/11/23 01:40:11;;;;;;;19.95;9.40;;;;;;;-1.63;91.78;102814.47;5029597;28;20033;-66
2021/11/23 01:42:37;;;;;;;13.95;8.40;;;;;;;-1.65;92.00;102816.19;5039626;28;20040;-65
2021/11/23 01:45:08;;;;;;;16.23;9.52;;;;;;;-1.65;91.61;102818.75;5039719;28;20038;-65
2021/11/23 01:47:34;;;;;;;17.88;9.13;;;;;;;-1.63;91.87;102819.56;5035989;28;20041;-65
2021/11/23 01:50:00;;;;;;;20.20;9.77;;;;;;;-1.62;91.84;102812.75;5033739;28;20033;-65
2021/11/23 01:52:26;;;;;;;17.17;9.52;;;;;;;-1.62;92.30;102816.16;5036340;28;20037;-65
2021/11/23 01:54:52;;;;;;;15.57;8.93;;;;;;;-1.61;92.04;102824.63;5033664;28;20053;-65
2021/11/23 01:57:19;;;;;;;18.65;10.55;;;;;;;-1.60;91.96;102821.19;5031359;28;20064;-65
2021/11/23 01:59:45;;;;;;;22.05;10.90;;;;;;;-1.59;91.91;102817.78;5032050;28;20057;-65
2021/11/23 02:02:11;;;;;;;17.85;9.93;;;;;;;-1.60;92.12;102816.09;5023785;28;20037;-65
2021/11/23 02:04:36;;;;;;;23.13;10.70;;;;;;;-1.61;92.18;102812.72;5033762;28;20040;-64
2021/11/23 02:07:05;;;;;;;20.13;10.73;;;;;;;-1.60;92.09;102818.66;5035169;28;20065;-65
2021/11/23 02:09:30;;;;;;;20.15;9.93;;;;;;;-1.61;92.05;102817.00;5039126;28;20488;-65
2021/11/23 02:11:56;;;;;;;20.00;9.18;;;;;;;-1.61;92.17;102811.91;5030573;28;20029;-65
2021/11/23 02:14:22;;;;;;;17.50;9.85;;;;;;;-1.64;91.84;102812.81;5033641;28;20241;-65
2021/11/23 02:16:48;;;;;;;18.88;10.25;;;;;;;-1.65;92.00;102813.66;5044368;28;20030;-65
2021/11/23 02:19:15;;;;;;;16.65;9.57;;;;;;;-1.66;91.82;102817.06;5033281;28;20538;-65
2021/11/23 02:21:43;;;;;;;14.00;8.75;;;;;;;-1.66;92.11;102816.22;5034351;28;20029;-65
2021/11/23 02:24:09;;;;;;;16.02;8.98;;;;;;;-1.67;91.94;102815.41;5035895;28;20106;-64
2021/11/23 02:26:34;;;;;;;17.38;9.50;;;;;;;-1.68;92.10;102815.41;5032701;28;20037;-65
2021/11/23 02:29:00;;;;;;;15.52;9.25;;;;;;;-1.68;91.98;102816.25;5030949;28;20032;-65
2021/11/23 02:31:25;;;;;;;24.17;9.55;;;;;;;-1.70;92.06;102806.97;5033124;28;20387;-65
2021/11/23 02:33:51;;;;;;;15.55;9.18;;;;;;;-1.74;91.55;102801.09;5035112;28;20033;-65
2021/11/23 02:36:17;;;;;;;18.48;8.75;;;;;;;-1.77;91.88;102803.72;5030335;28;20037;-64
2021/11/23 02:38:46;;;;;;;18.33;9.10;;;;;;;-1.79;91.63;102802.88;5033296;28;20415;-64
2021/11/23 02:41:13;;;;;;;22.42;9.75;;;;;;;-1.79;91.98;102810.50;5036111;28;20036;-65
2021/11/23 02:43:39;;;;;;;16.15;9.30;;;;;;;-1.79;92.08;102807.97;5033978;28;20068;-65
2021/11/23 02:46:06;;;;;;;17.52;9.60;;;;;;;-1.81;91.88;102809.69;5035774;28;20406;-65
2021/11/23 02:48:32;;;;;;;16.00;8.70;;;;;;;-1.86;91.62;102799.63;5026135;28;20022;-64
2021/11/23 02:51:17;;;;;;;18.33;8.95;;;;;;;-1.88;91.71;102797.97;5035365;28;20032;-65
2021/11/23 02:53:50;;;;;;;18.88;9.30;;;;;;;-1.92;91.69;102804.81;5030191;28;20025;-65
2021/11/23 02:56:17;;;;;;;16.88;9.52;;;;;;;-1.94;91.71;102806.56;5040339;28;20055;-65
2021/11/23 02:58:50;;;;;;;17.83;9.32;;;;;;;-1.96;91.57;102796.41;5034828;28;20404;-65
2021/11/23 03:01:23;;;;;;;17.20;8.95;;;;;;;-1.96;91.99;102804.03;5035464;28;20036;-64
2021/11/23 03:03:49;;;;;;;24.48;9.55;;;;;;;-1.94;91.95;102811.63;5039263;28;20037;-65
2021/11/23 03:06:17;;;;;;;23.50;9.82;;;;;;;-1.94;92.04;102801.47;5028293;28;20061;-65
2021/11/23 03:08:44;;;;;;;18.88;9.55;;;;;;;-1.93;92.05;102810.75;5036116;28;20175;-65
2021/11/23 03:11:10;;;;;;;18.00;9.27;;;;;;;-1.92;91.99;102816.66;5039835;28;20041;-65
2021/11/23 03:13:36;;;;;;;18.30;10.02;;;;;;;-1.95;91.96;102812.50;5034641;28;20100;-65
2021/11/23 03:16:01;;;;;;;18.75;9.48;;;;;;;-1.99;91.82;102805.78;5039818;28;20560;-65
2021/11/23 03:18:30;;;;;;;16.13;8.80;;;;;;;-2.03;92.00;102799.06;5037065;28;20028;-65
2021/11/23 03:20:56;;;;;;;17.25;9.05;;;;;;;-2.07;91.68;102805.91;5031315;28;20033;-65
2021/11/23 03:23:22;;;;;;;17.80;9.73;;;;;;;-2.10;92.12;102812.75;5038439;28;20079;-65
2021/11/23 03:25:48;;;;;;;17.83;9.27;;;;;;;-2.11;92.13;102795.81;5033661;28;20116;-64
2021/11/23 03:28:14;;;;;;;21.80;9.98;;;;;;;-2.08;92.14;102803.38;5036356;28;20044;-65
2021/11/23 03:30:40;;;;;;;26.23;10.85;;;;;;;-2.06;91.97;102805.03;5035614;28;20025;-65
2021/11/23 03:33:08;;;;;;;22.40;11.70;;;;;;;-2.10;92.03;102800.88;5019512;28;20029;-64
2021/11/23 03:35:37;;;;;;;20.23;10.55;;;;;;;-2.10;92.33;102793.25;5019212;28;20681;-65
2021/11/23 03:38:04;;;;;;;22.42;10.15;;;;;;;-2.07;92.45;102797.41;5032745;28;20037;-65
2021/11/23 03:40:32;;;;;;;25.58;11.23;;;;;;;-2.03;92.95;102799.06;5038415;28;20039;-65
2021/11/23 03:42:58;;;;;;;29.42;11.45;;;;;;;-2.02;93.03;102796.47;5038829;28;20040;-65
2021/11/23 03:45:26;;;;;;;22.95;10.98;;;;;;;-1.96;93.07;102791.31;5033429;28;20025;-65
2021/11/23 03:47:52;;;;;;;25.30;11.30;;;;;;;-1.94;93.18;102793.84;5034197;28;20037;-65
2021/11/23 03:50:19;;;;;;;19.00;11.23;;;;;;;-1.97;93.42;102792.16;5034172;28;20511;-65
2021/11/23 03:52:46;;;;;;;20.38;11.80;;;;;;;-1.94;93.69;102806.56;5029359;28;20036;-65
2021/11/23 03:55:17;;;;;;;20.60;11.93;;;;;;;-1.91;93.90;102798.03;5029450;28;20037;-65
2021/11/23 03:57:47;;;;;;;31.05;14.15;;;;;;;-1.86;94.29;102793.69;5032988;28;20033;-65
2021/11/23 04:00:16;;;;;;;33.97;14.60;;;;;;;-1.85;94.40;102801.28;5033179;28;20111;-65
2021/11/23 04:02:44;;;;;;;32.88;16.55;;;;;;;-1.80;94.56;102796.13;5027931;28;20132;-66
2021/11/23 04:05:10;;;;;;;39.42;17.23;;;;;;;-1.77;94.75;102802.00;5030489;28;20408;-66
2021/11/23 04:07:39;;;;;;;38.03;16.83;;;;;;;-1.72;94.90;102799.38;5014438;28;20052;-66
2021/11/23 04:10:06;;;;;;;34.13;16.45;;;;;;;-1.70;95.26;102806.97;5035366;28;20555;-66
2021/11/23 04:12:32;;;;;;;31.40;14.88;;;;;;;-1.70;95.21;102797.63;5027569;28;20048;-66
2021/11/23 04:14:57;;;;;;;36.40;17.88;;;;;;;-1.66;95.26;102796.69;5027221;28;20136;-66
2021/11/23 04:17:26;;;;;;;36.22;16.98;;;;;;;-1.44;95.78;102796.31;5027871;28;20037;-66
2021/11/23 04:19:51;;;;;;;34.90;13.98;;;;;;;-1.40;95.48;102803.84;5031773;28;20667;-66
2021/11/23 04:22:17;;;;;;;32.63;14.48;;;;;;;-1.47;95.33;102799.78;5028220;28;20037;-66
2021/11/23 04:24:42;;;;;;;27.52;13.75;;;;;;;-1.50;95.52;102799.81;5036364;28;20029;-65
2021/11/23 04:27:08;;;;;;;27.10;14.77;;;;;;;-1.48;95.63;102799.78;5028480;28;20041;-66
2021/11/23 04:29:33;;;;;;;30.52;13.82;;;;;;;-1.46;95.89;102791.25;5029670;28;20044;-65
2021/11/23 04:31:59;;;;;;;30.25;14.55;;;;;;;-1.40;96.25;102790.28;5027463;28;20392;-65
2021/11/23 04:34:24;;;;;;;31.48;15.68;;;;;;;-1.33;96.22;102785.94;5041221;28;20036;-66
2021/11/23 04:36:50;;;;;;;30.35;13.88;;;;;;;-1.30;96.71;102783.31;5032126;28;20032;-65
2021/11/23 04:39:15;;;;;;;29.33;14.00;;;;;;;-1.26;96.67;102787.47;5033395;28;20025;-66
2021/11/23 04:41:42;;;;;;;27.40;13.25;;;;;;;-1.17;96.72;102779.63;5025650;28;20099;-66
2021/11/23 04:44:08;;;;;;;25.77;13.00;;;;;;;-1.17;97.28;102782.19;5028533;28;20037;-65
2021/11/23 04:46:34;;;;;;;28.88;14.43;;;;;;;-1.16;96.98;102777.94;5030162;28;20350;-66
2021/11/23 04:49:00;;;;;;;31.80;15.05;;;;;;;-1.14;97.21;102781.31;5029277;28;20029;-66
2021/11/23 04:51:25;;;;;;;27.88;15.40;;;;;;;-1.12;97.14;102774.47;5028947;28;20057;-66
2021/11/23 04:53:51;;;;;;;31.52;14.88;;;;;;;-1.10;97.21;102780.38;5025185;28;20040;-65
2021/11/23 04:56:17;;;;;;;29.70;14.10;;;;;;;-1.08;97.61;102783.72;5030347;28;20044;-66
2021/11/23 04:58:42;;;;;;;22.92;12.90;;;;;;;-1.06;97.68;102782.81;5036475;28;20037;-66
2021/11/23 05:01:08;;;;;;;28.25;14.77;;;;;;;-1.00;98.12;102781.84;5028656;28;20038;-66
2021/11/23 05:03:33;;;;;;;37.42;17.77;;;;;;;-0.96;97.85;102791.13;5039338;28;20462;-66
2021/11/23 05:05:59;;;;;;;33.33;16.58;;;;;;;-0.93;98.15;102783.38;5034802;28;20036;-66
2021/11/23 05:08:25;;;;;;;28.35;15.32;;;;;;;-0.90;97.93;102785.88;5030767;28;20044;-66
2021/11/23 05:10:50;;;;;;;31.17;16.10;;;;;;;-0.89;97.70;102777.34;5030357;28;20039;-66
2021/11/23 05:13:16;;;;;;;29.73;15.43;;;;;;;-0.84;97.73;102772.16;5032483;28;20049;-66
2021/11/23 05:15:41;;;;;;;29.92;16.10;;;;;;;-0.82;97.99;102778.06;5035922;28;20090;-66
2021/11/23 05:18:07;;;;;;;33.58;17.13;;;;;;;-0.83;98.03;102776.38;5037092;28;20030;-66
2021/11/23 05:20:32;;;;;;;29.75;16.30;;;;;;;-0.83;97.92;102774.69;5030978;28;20037;-66
2021/11/23 05:22:58;;;;;;;36.20;15.98;;;;;;;-0.81;98.51;102769.53;5026549;28;20057;-66
2021/11/23 05:25:23;;;;;;;27.33;15.77;;;;;;;-0.76;98.00;102780.47;5031547;28;20169;-67
2021/11/23 05:27:49;;;;;;;29.58;15.40;;;;;;;-0.72;98.18;102774.44;5034509;28;20033;-66
2021/11/23 05:30:14;;;;;;;30.80;15.40;;;;;;;-0.69;98.15;102781.19;5030844;28;20043;-66
2021/11/23 05:32:41;;;;;;;27.92;15.25;;;;;;;-0.67;98.18;102782.81;5022623;28;20492;-67
2021/11/23 05:35:07;;;;;;;27.02;15.30;;;;;;;-0.64;98.44;102776.78;5027118;28;20037;-66
2021/11/23 05:37:32;;;;;;;28.80;15.43;;;;;;;-0.63;98.84;102779.31;5028503;28;20040;-67
2021/11/23 05:40:02;;;;;;;26.23;15.73;;;;;;;-0.60;98.90;102775.88;5032333;28;20029;-67
2021/11/23 05:42:28;;;;;;;28.48;15.70;;;;;;;-0.58;98.39;102769.03;5024854;28;20762;-67
2021/11/23 05:44:54;;;;;;;40.28;17.02;;;;;;;-0.54;98.69;102772.34;5025969;28;20069;-66
2021/11/23 05:47:19;;;;;;;31.70;16.70;;;;;;;-0.53;98.72;102769.75;5026818;28;20046;-67
2021/11/23 05:49:45;;;;;;;32.00;17.02;;;;;;;-0.51;98.88;102772.25;5026994;28;20025;-67
2021/11/23 05:52:11;;;;;;;34.03;17.30;;;;;;;-0.49;98.89;102773.06;5023835;28;20040;-67
2021/11/23 05:54:37;;;;;;;32.20;16.70;;;;;;;-0.46;98.69;102775.53;5013986;28;20033;-67
2021/11/23 05:57:03;;;;;;;33.92;17.23;;;;;;;-0.45;98.99;102769.59;5026492;28;20566;-67
2021/11/23 05:59:29;;;;;;;28.25;16.15;;;;;;;-0.43;99.05;102772.94;5047269;28;20120;-67
2021/11/23 06:01:54;;;;;;;31.60;16.55;;;;;;;-0.42;98.68;102775.41;5029210;28;20060;-67
2021/11/23 06:04:20;;;;;;;41.20;18.63;;;;;;;-0.35;99.23;102765.09;5029714;28;20033;-67
2021/11/23 06:06:45;;;;;;;37.05;19.88;;;;;;;-0.32;99.34;102767.56;5033515;28;20120;-67
2021/11/23 06:09:11;;;;;;;41.80;19.92;;;;;;;-0.30;99.09;102776.00;5030825;28;20379;-66
2021/11/23 06:11:36;;;;;;;39.47;20.35;;;;;;;-0.29;99.32;102770.03;5031740;28;20037;-67
2021/11/23 06:14:02;;;;;;;35.80;19.13;;;;;;;-0.26;99.17;102758.06;5034963;28;20423;-67
2021/11/23 06:16:29;;;;;;;38.28;19.20;;;;;;;-0.26;99.07;102768.25;5023393;28;20116;-67
2021/11/23 06:18:55;;;;;;;33.85;18.85;;;;;;;-0.25;99.49;102771.63;5048129;28;20091;-67
2021/11/23 06:21:21;;;;;;;39.13;19.35;;;;;;;-0.24;99.26;102774.16;5029664;28;20593;-67
2021/11/23 06:23:50;;;;;;;38.78;20.73;;;;;;;-0.20;99.68;102780.03;5026684;28;20053;-67
2021/11/23 06:26:18;;;;;;;44.20;21.98;;;;;;;-0.18;99.54;102767.25;5033622;28;20033;-67
2021/11/23 06:28:44;;;;;;;46.83;21.45;;;;;;;-0.14;99.70;102771.38;5045390;28;20033;-67
2021/11/23 06:31:09;;;;;;;43.70;20.33;;;;;;;-0.12;99.35;102778.09;5032072;28;20044;-67
2021/11/23 06:33:35;;;;;;;42.55;20.83;;;;;;;-0.10;99.77;102778.06;5034046;28;20476;-67
2021/11/23 06:36:00;;;;;;;40.72;19.88;;;;;;;-0.07;99.93;102780.56;5035469;28;20033;-67
2021/11/23 06:38:26;;;;;;;47.70;22.35;;;;;;;-0.05;99.96;102783.91;5040061;28;20032;-67
2021/11/23 06:40:51;;;;;;;40.30;20.45;;;;;;;-0.03;100.00;102785.53;5040181;28;20065;-67
2021/11/23 06:43:17;;;;;;;39.28;20.08;;;;;;;0.03;100.00;102792.19;5039330;28;20508;-67
2021/11/23 06:45:42;;;;;;;39.75;19.40;;;;;;;0.05;99.80;102799.81;5029485;28;20642;-67
2021/11/23 06:48:09;;;;;;;40.95;19.95;;;;;;;0.06;100.00;102796.38;5029834;28;20048;-67
2021/11/23 06:50:35;;;;;;;36.72;19.10;;;;;;;0.05;100.00;102803.19;5033999;28;20028;-67
2021/11/23 06:53:07;;;;;;;36.53;19.17;;;;;;;0.07;100.00;102811.63;5039016;28;20036;-67
2021/11/23 06:55:33;;;;;;;35.03;19.17;;;;;;;0.07;99.83;102816.75;5033812;28;20037;-67
2021/11/23 06:58:03;;;;;;;38.42;18.08;;;;;;;0.08;100.00;102809.94;5038489;28;20025;-67
2021/11/23 07:00:29;;;;;;;33.83;18.30;;;;;;;0.07;100.00;102826.94;5030774;28;20033;-67
2021/11/23 07:02:55;;;;;;;35.53;18.30;;;;;;;0.10;100.00;102818.41;5030419;28;20124;-67
2021/11/23 07:05:21;;;;;;;39.25;19.85;;;;;;;0.26;99.91;102824.75;5028765;28;20464;-67
2021/11/23 07:07:47;;;;;;;44.08;19.92;;;;;;;0.21;100.00;102823.22;5033116;28;20033;-67
2021/11/23 07:10:13;;;;;;;38.65;19.40;;;;;;;0.18;100.00;102822.41;5042916;28;20038;-67
2021/11/23 07:12:40;;;;;;;35.30;19.75;;;;;;;0.22;100.00;102824.91;5026341;28;20094;-67
2021/11/23 07:15:10;;;;;;;41.25;20.30;;;;;;;0.23;100.00;102818.91;5014090;28;20316;-67
2021/11/23 07:17:35;;;;;;;38.83;19.38;;;;;;;0.27;100.00;102825.63;5026125;28;20037;-67
2021/11/23 07:20:06;;;;;;;41.45;20.98;;;;;;;0.30;100.00;102822.97;5027624;28;20092;-67
2021/11/23 07:22:32;;;;;;;41.92;22.52;;;;;;;0.33;100.00;102823.72;5032846;28;20403;-67
2021/11/23 07:24:57;;;;;;;71.55;30.02;;;;;;;0.53;100.00;102832.59;5025546;28;20044;-67
2021/11/23 07:27:23;;;;;;;63.58;30.23;;;;;;;0.69;100.00;102833.84;5034430;28;20045;-67
2021/11/23 07:29:48;;;;;;;66.63;31.67;;;;;;;0.72;100.00;102820.16;5012255;28;20029;-67
2021/11/23 07:32:17;;;;;;;70.10;32.75;;;;;;;0.80;100.00;102831.00;5031994;28;20033;-66
2021/11/23 07:34:43;;;;;;;61.70;31.75;;;;;;;0.81;100.00;102822.47;5030277;28;20032;-66
2021/11/23 07:37:08;;;;;;;64.50;32.25;;;;;;;0.87;100.00;102824.84;5030513;28;20047;-67
2021/11/23 07:39:34;;;;;;;70.05;32.33;;;;;;;0.94;100.00;102830.59;5028333;28;20021;-67
2021/11/23 07:42:00;;;;;;;64.38;32.25;;;;;;;0.90;100.00;102827.28;5042820;28;20067;-67
2021/11/23 07:44:26;;;;;;;65.05;31.30;;;;;;;0.91;100.00;102828.97;5030591;28;20041;-66
2021/11/23 07:46:52;;;;;;;63.95;32.47;;;;;;;0.96;100.00;102826.28;5028481;28;20049;-66
2021/11/23 07:49:18;;;;;;;64.32;31.48;;;;;;;1.03;100.00;102826.94;5028862;28;20030;-67
2021/11/23 07:51:43;;;;;;;71.38;34.20;;;;;;;1.04;100.00;102832.03;5027684;28;20400;-67
2021/11/23 07:54:10;;;;;;;66.25;32.33;;;;;;;1.07;100.00;102831.91;5031226;28;20099;-66
2021/11/23 07:56:36;;;;;;;71.78;34.38;;;;;;;1.10;100.00;102836.13;5031308;28;20033;-67
2021/11/23 07:59:02;;;;;;;74.43;36.08;;;;;;;1.15;100.00;102837.66;5031431;28;20026;-67
2021/11/23 08:01:27;;;;;;;69.70;34.25;;;;;;;1.32;100.00;102837.16;5024641;28;20402;-67
2021/11/23 08:03:52;;;;;;;65.45;32.92;;;;;;;1.34;100.00;102830.28;5028256;28;20046;-67
2021/11/23 08:06:18;;;;;;;68.03;32.85;;;;;;;1.25;100.00;102843.31;5026689;28;20277;-67
2021/11/23 08:08:44;;;;;;;64.90;30.60;;;;;;;1.22;100.00;102848.53;5030959;28;20032;-67
2021/11/23 08:11:10;;;;;;;64.32;30.42;;;;;;;1.27;100.00;102848.41;5029923;28;20033;-67
2021/11/23 08:13:36;;;;;;;59.97;31.45;;;;;;;1.24;100.00;102844.19;5030466;28;20029;-66
2021/11/23 08:16:05;;;;;;;63.70;31.80;;;;;;;1.33;100.00;102832.88;5030895;28;20431;-67
2021/11/23 08:18:32;;;;;;;64.97;31.05;;;;;;;1.42;100.00;102844.56;5027241;28;20326;-66
2021/11/23 08:20:58;;;;;;;71.95;31.83;;;;;;;1.39;100.00;102840.34;5032504;28;20037;-67
2021/11/23 08:23:24;;;;;;;70.20;30.10;;;;;;;1.36;100.00;102845.56;5029371;28;20102;-66
2021/11/23 08:25:51;;;;;;;67.95;31.33;;;;;;;1.37;100.00;102847.22;5028330;28;20484;-66
2021/11/23 08:28:18;;;;;;;65.97;30.50;;;;;;;1.38;100.00;102846.34;5033982;28;20099;-67
2021/11/23 08:30:46;;;;;;;65.60;30.33;;;;;;;1.42;100.00;102853.06;5030291;28;20116;-67
2021/11/23 08:33:11;;;;;;;70.85;31.65;;;;;;;1.44;100.00;102845.34;5033330;28;20026;-67
2021/11/23 08:35:37;;;;;;;65.43;31.10;;;;;;;1.41;100.00;102848.81;5029219;28;20041;-67
2021/11/23 08:38:02;;;;;;;72.78;32.65;;;;;;;1.49;100.00;102854.53;5038811;28;20051;-66
2021/11/23 08:40:28;;;;;;;68.75;30.85;;;;;;;1.48;100.00;102852.84;5031834;28;20377;-67
2021/11/23 08:42:54;;;;;;;70.25;32.30;;;;;;;1.54;100.00;102856.94;5033695;28;20458;-67
2021/11/23 08:45:19;;;;;;;64.68;30.48;;;;;;;1.61;100.00;102863.56;5033653;28;20041;-66
2021/11/23 08:47:47;;;;;;;61.78;31.13;;;;;;;1.58;100.00;102863.63;5024424;28;20044;-67
2021/11/23 08:50:12;;;;;;;65.57;30.65;;;;;;;1.54;100.00;102862.06;5025215;28;20054;-67
2021/11/23 08:52:39;;;;;;;74.28;32.83;;;;;;;1.65;100.00;102857.44;5028617;28;20034;-67
2021/11/23 08:55:06;;;;;;;64.53;32.58;;;;;;;1.63;100.00;102869.44;5028195;28;20571;-67
2021/11/23 08:57:32;;;;;;;71.57;31.90;;;;;;;1.67;100.00;102860.78;5025434;28;20036;-67
2021/11/23 09:02:36;;;;;;;66.80;31.75;;;;;;;1.73;100.00;102872.56;5027300;28;20602;-67
2021/11/23 09:05:02;;;;;;;70.82;32.70;;;;;;;1.73;100.00;102870.84;5026413;28;20021;-67
2021/11/23 09:07:27;;;;;;;68.97;31.88;;;;;;;1.76;100.00;102869.91;5025238;28;20041;-67
2021/11/23 09:09:53;;;;;;;70.93;32.65;;;;;;;1.82;100.00;102872.28;5028935;28;20033;-67
2021/11/23 09:12:19;;;;;;;73.72;31.30;;;;;;;1.84;100.00;102870.50;5031031;28;20048;-67
2021/11/23 09:14:45;;;;;;;74.97;31.77;;;;;;;1.86;100.00;102862.78;5024001;28;20049;-66
2021/11/23 09:17:10;;;;;;;78.85;32.22;;;;;;;1.90;100.00;102869.47;5027914;28;20665;-66
2021/11/23 09:19:36;;;;;;;78.32;30.70;;;;;;;1.93;100.00;102870.22;5029741;28;20516;-66
2021/11/23 09:22:02;;;;;;;80.95;30.27;;;;;;;2.05;100.00;102873.25;5027021;28;20047;-67
2021/11/23 09:24:28;;;;;;;82.00;32.50;;;;;;;2.09;100.00;102873.13;5025052;28;20041;-67
2021/11/23 09:26:54;;;;;;;80.03;31.45;;;;;;;2.12;100.00;102864.50;5037330;28;20061;-67
2021/11/23 09:29:21;;;;;;;71.75;29.98;;;;;;;2.13;100.00;102861.88;5030333;28;20500;-67
2021/11/23 09:31:47;;;;;;;73.43;31.00;;;;;;;2.18;100.00;102858.34;5027647;28;20033;-67
2021/11/23 09:34:13;;;;;;;72.43;30.80;;;;;;;2.16;100.00;102865.22;5034522;28;20032;-67
2021/11/23 09:36:40;;;;;;;71.78;29.15;;;;;;;2.22;100.00;102863.28;5027490;28;20496;-67
2021/11/23 09:39:06;;;;;;;65.10;29.42;;;;;;;2.26;100.00;102856.34;5032032;28;20108;-67
2021/11/23 09:41:33;;;;;;;69.63;30.48;;;;;;;2.39;100.00;102857.59;5037472;28;20053;-67
2021/11/23 09:44:00;;;;;;;77.25;29.98;;;;;;;2.45;100.00;102848.88;5028237;28;20036;-67
2021/11/23 09:46:30;;;;;;;65.20;26.92;;;;;;;2.45;100.00;102857.41;5027795;28;20044;-67
2021/11/23 09:48:56;;;;;;;72.55;29.02;;;;;;;2.52;100.00;102861.44;5024465;28;20043;-67
2021/11/23 09:51:28;;;;;;;69.57;28.80;;;;;;;2.59;100.00;102858.66;5039457;28;20037;-67
2021/11/23 09:53:55;;;;;;;70.07;29.40;;;;;;;2.56;100.00;102859.56;5026681;28;20060;-67
2021/11/23 09:56:21;;;;;;;60.58;26.65;;;;;;;2.57;100.00;102860.44;5027957;28;20459;-67
2021/11/23 09:58:54;;;;;;;60.85;25.85;;;;;;;2.61;100.00;102857.69;5026079;28;20052;-67
2021/11/23 10:01:19;;;;;;;;;;;;;;;2.68;100.00;102863.47;5027894;28;20049;-67
2021/11/23 10:03:44;;;;;;;67.38;29.27;;;;;;;2.67;100.00;102852.34;5028571;28;19916;-67
2021/11/23 10:06:13;;;;;;;63.05;28.23;;;;;;;2.61;100.00;102856.88;5033634;28;20380;-67
2021/11/23 10:08:40;;;;;;;70.38;30.75;;;;;;;2.75;100.00;102853.81;5032586;28;20041;-67
2021/11/23 10:11:07;;;;;;;70.93;33.22;;;;;;;2.78;100.00;102856.28;5028614;28;20037;-67
2021/11/23 10:13:40;;;;;;;66.20;30.73;;;;;;;2.78;100.00;102853.72;5027877;28;20597;-67
2021/11/23 10:16:06;;;;;;;80.13;33.00;;;;;;;2.82;100.00;102858.66;5028318;28;20369;-67
2021/11/23 10:18:31;;;;;;;66.57;32.35;;;;;;;2.84;100.00;102850.91;5041203;28;20088;-67
2021/11/23 10:20:59;;;;;;;73.65;31.15;;;;;;;2.88;100.00;102852.47;5039006;28;20396;-67
2021/11/23 10:23:28;;;;;;;71.40;31.48;;;;;;;2.91;100.00;102847.25;5028415;28;20037;-67
2021/11/23 10:26:18;;;;;;;75.55;33.10;;;;;;;2.89;100.00;102852.44;5028390;28;20045;-67
2021/11/23 10:29:05;;;;;;;71.78;32.35;;;;;;;2.96;100.00;102853.06;5030662;28;20483;-67
2021/11/23 10:31:40;;;;;;;85.68;32.95;;;;;;;3.00;100.00;102844.34;5043377;28;20033;-66
2021/11/23 10:34:09;;;;;;;72.13;32.03;;;;;;;2.97;100.00;102844.44;5028817;28;20083;-67
2021/11/23 10:36:38;;;;;;;65.25;29.73;;;;;;;2.95;100.00;102842.84;5029428;28;20029;-67
2021/11/23 10:39:03;;;;;;;70.47;33.78;;;;;;;3.04;100.00;102847.63;5030209;28;20120;-67
2021/11/23 10:41:29;;;;;;;76.70;34.15;;;;;;;3.00;100.00;102844.34;5038385;28;20144;-67
2021/11/23 10:43:54;;;;;;;90.60;38.65;;;;;;;3.05;100.00;102844.16;5036397;28;20040;-67
2021/11/23 10:46:22;;;;;;;77.90;36.38;;;;;;;3.08;100.00;102846.63;5039580;28;20025;-66
2021/11/23 10:48:56;;;;;;;71.82;32.20;;;;;;;3.08;100.00;102842.31;5051064;28;20087;-67
2021/11/23 10:51:23;;;;;;;70.25;34.35;;;;;;;3.15;100.00;102847.25;5046703;28;20035;-67
2021/11/23 10:53:49;;;;;;;111.13;50.25;;;;;;;3.19;100.00;102844.50;5034592;28;20029;-67
2021/11/23 10:56:17;;;;;;;86.35;38.17;;;;;;;3.30;100.00;102841.53;5032622;28;20037;-67
2021/11/23 10:58:44;;;;;;;108.75;49.47;;;;;;;3.29;100.00;102848.38;5033737;28;20657;-67
2021/11/23 11:01:11;;;;;;;89.53;37.70;;;;;;;3.30;100.00;102846.66;5026800;28;20041;-67
2021/11/23 11:03:38;;;;;;;80.10;34.40;;;;;;;3.38;100.00;102841.25;5012590;28;20029;-66
2021/11/23 11:06:06;;;;;;;88.38;39.63;;;;;;;3.34;100.00;102842.25;5033346;28;20032;-67
2021/11/23 11:08:43;;;;;;;163.77;69.07;;;;;;;3.36;100.00;102838.72;5037881;28;20041;-67
2021/11/23 11:11:15;;;;;;;96.88;40.72;;;;;;;3.38;100.00;102839.50;5030400;28;20033;-66